createdAt,value
2023-03-12T00:00:48.521Z,3.15
2023-03-12T00:01:49.118Z,3.16
2023-03-12T00:02:49.825Z,3.16
2023-03-12T00:03:49.716Z,3.29
2023-03-12T00:04:51.010Z,3.3
2023-03-12T00:05:51.463Z,3.3
2023-03-12T00:06:51.623Z,3.22
2023-03-12T00:07:52.541Z,3.09
2023-03-12T00:08:56.565Z,3.19
2023-03-12T00:09:54.797Z,3.09
2023-03-12T00:10:55.298Z,3.16
2023-03-12T00:11:55.501Z,3.13
2023-03-12T00:12:55.736Z,3.19
2023-03-12T00:13:56.213Z,3.19
2023-03-12T00:14:56.885Z,3.13
2023-03-12T00:15:57.907Z,3.12
2023-03-12T00:16:58.010Z,3.13
2023-03-12T00:17:58.212Z,3.05
2023-03-12T00:18:58.548Z,3.15
2023-03-12T00:19:59.828Z,3.12
2023-03-12T00:21:00.418Z,3.11
2023-03-12T00:22:00.396Z,3.12
2023-03-12T00:23:01.031Z,3.12
2023-03-12T00:24:01.231Z,3.09
2023-03-12T00:25:01.795Z,3.13
2023-03-12T00:26:02.532Z,3.08
2023-03-12T00:27:03.453Z,3.22
2023-03-12T00:28:03.353Z,3.21
2023-03-12T00:29:04.291Z,3.26
2023-03-12T00:30:05.496Z,3.29
2023-03-12T00:31:05.575Z,3.3
2023-03-12T00:32:06.188Z,3.27
2023-03-12T00:33:06.769Z,3.37
2023-03-12T00:34:06.689Z,3.33
2023-03-12T00:35:07.681Z,3.24
2023-03-12T00:36:08.606Z,3.37
2023-03-12T00:37:09.518Z,3.46
2023-03-12T00:38:10.496Z,3.33
2023-03-12T00:39:10.714Z,3.43
2023-03-12T00:40:10.944Z,3.36
2023-03-12T00:41:11.867Z,3.43
2023-03-12T00:42:12.513Z,3.46
2023-03-12T00:43:13.435Z,3.34
2023-03-12T00:44:14.643Z,3.49
2023-03-12T00:45:14.853Z,3.43
2023-03-12T00:46:15.762Z,3.45
2023-03-12T00:47:16.605Z,3.34
2023-03-12T00:48:17.546Z,3.36
2023-03-12T00:49:18.753Z,3.41
2023-03-12T00:50:19.101Z,3.37
2023-03-12T00:51:19.075Z,3.31
2023-03-12T00:52:20.563Z,3.34
2023-03-12T00:53:21.505Z,3.29
2023-03-12T00:54:22.118Z,3.3
2023-03-12T00:55:23.031Z,3.29
2023-03-12T00:56:23.133Z,3.22
2023-03-12T00:57:23.329Z,3.31
2023-03-12T00:58:23.960Z,3.27
2023-03-12T00:59:24.167Z,3.31
2023-03-12T01:00:25.150Z,3.19
2023-03-12T01:01:25.750Z,3.31
2023-03-12T01:02:25.960Z,3.22
2023-03-12T01:03:26.872Z,3.15
2023-03-12T01:04:27.571Z,3.12
2023-03-12T01:05:28.195Z,3.21
2023-03-12T01:06:28.591Z,3.27
2023-03-12T01:07:29.828Z,3.18
2023-03-12T01:08:30.758Z,3.18
2023-03-12T01:09:30.686Z,3.21
2023-03-12T01:10:31.604Z,3.22
2023-03-12T01:11:32.242Z,3.27
2023-03-12T01:12:33.468Z,3.18
2023-03-12T01:13:33.662Z,3.27
2023-03-12T01:14:34.308Z,3.27
2023-03-12T01:15:34.867Z,3.26
2023-03-12T01:16:35.090Z,3.29
2023-03-12T01:17:35.485Z,3.3
2023-03-12T01:18:35.851Z,3.36
2023-03-12T01:19:36.772Z,3.31
2023-03-12T01:20:37.062Z,3.33
2023-03-12T01:21:37.685Z,3.31
2023-03-12T01:22:38.607Z,3.24
2023-03-12T01:23:39.567Z,3.34
2023-03-12T01:24:39.776Z,3.3
2023-03-12T01:25:40.460Z,3.36
2023-03-12T01:26:41.056Z,3.34
2023-03-12T01:27:41.545Z,3.31
2023-03-12T01:28:42.161Z,3.19
2023-03-12T01:29:42.658Z,3.11
2023-03-12T01:30:42.861Z,3.22
2023-03-12T01:31:43.016Z,3.26
2023-03-12T01:32:43.838Z,3.22
2023-03-12T01:33:43.629Z,3.22
2023-03-12T01:34:43.850Z,3.29
2023-03-12T01:35:45.524Z,3.27
2023-03-12T01:36:45.909Z,3.33
2023-03-12T01:37:45.841Z,3.34
2023-03-12T01:38:46.490Z,3.4
2023-03-12T01:39:47.408Z,3.33
2023-03-12T01:40:47.618Z,3.33
2023-03-12T01:41:47.855Z,3.3
2023-03-12T01:42:48.058Z,3.33
2023-03-12T01:43:48.266Z,3.37
2023-03-12T01:44:49.215Z,3.37
2023-03-12T01:45:50.211Z,3.37
2023-03-12T01:46:50.614Z,3.37
2023-03-12T01:47:50.821Z,3.3
2023-03-12T01:48:51.061Z,3.37
2023-03-12T01:49:51.283Z,3.5
2023-03-12T01:50:51.881Z,3.37
2023-03-12T01:51:52.419Z,3.5
2023-03-12T01:52:52.942Z,3.41
2023-03-12T01:53:54.130Z,3.45
2023-03-12T01:54:54.049Z,3.45
2023-03-12T01:55:55.575Z,3.48
2023-03-12T01:56:56.012Z,3.4
2023-03-12T01:57:56.926Z,3.41
2023-03-12T01:58:57.848Z,3.5
2023-03-12T01:59:58.340Z,3.46
2023-03-12T02:00:58.987Z,3.48
2023-03-12T02:01:59.098Z,3.46
2023-03-12T02:03:00.293Z,3.48
2023-03-12T02:04:01.117Z,3.43
2023-03-12T02:05:01.173Z,3.49
2023-03-12T02:06:02.441Z,3.41
2023-03-12T02:07:02.858Z,3.27
2023-03-12T02:08:03.070Z,3.34
2023-03-12T02:09:03.265Z,3.41
2023-03-12T02:10:03.477Z,3.34
2023-03-12T02:11:03.687Z,3.3
2023-03-12T02:12:03.893Z,3.31
2023-03-12T02:13:04.573Z,3.37
2023-03-12T02:14:04.492Z,3.27
2023-03-12T02:15:05.125Z,3.26
2023-03-12T02:16:05.902Z,3.3
2023-03-12T02:17:05.909Z,3.36
2023-03-12T02:18:07.159Z,3.27
2023-03-12T02:19:07.084Z,3.31
2023-03-12T02:20:08.298Z,3.31
2023-03-12T02:21:08.582Z,3.43
2023-03-12T02:22:08.573Z,3.34
2023-03-12T02:23:09.529Z,3.36
2023-03-12T02:24:11.036Z,3.31
2023-03-12T02:25:10.680Z,3.22
2023-03-12T02:26:11.731Z,3.21
2023-03-12T02:27:12.026Z,3.15
2023-03-12T02:28:13.221Z,3.12
2023-03-12T02:29:13.157Z,3.11
2023-03-12T02:30:13.908Z,3.11
2023-03-12T02:31:15.355Z,3.09
2023-03-12T02:32:15.814Z,3.03
2023-03-12T02:33:17.097Z,3
2023-03-12T02:34:17.452Z,3.08
2023-03-12T02:35:18.377Z,3.03
2023-03-12T02:36:19.087Z,3.09
2023-03-12T02:37:19.824Z,3.12
2023-03-12T02:38:20.168Z,3.09
2023-03-12T02:39:21.084Z,3.05
2023-03-12T02:40:21.278Z,3.09
2023-03-12T02:41:21.503Z,2.94
2023-03-12T02:42:22.422Z,3.06
2023-03-12T02:43:23.619Z,3.03
2023-03-12T02:44:23.835Z,3.01
2023-03-12T02:45:24.332Z,3.09
2023-03-12T02:46:24.803Z,3.11
2023-03-12T02:47:26.445Z,3.06
2023-03-12T02:48:26.084Z,3.05
2023-03-12T02:49:27.040Z,3.09
2023-03-12T02:50:27.347Z,3.12
2023-03-12T02:51:28.442Z,3.09
2023-03-12T02:52:28.707Z,3.03
2023-03-12T02:53:28.922Z,3.11
2023-03-12T02:54:29.026Z,3.11
2023-03-12T02:55:30.533Z,3.12
2023-03-12T02:56:31.460Z,3.09
2023-03-12T02:57:32.507Z,3.13
2023-03-12T02:58:32.713Z,3.19
2023-03-12T02:59:32.677Z,3.21
2023-03-12T03:00:33.327Z,3.3
2023-03-12T03:01:33.671Z,3.31
2023-03-12T03:02:33.863Z,3.41
2023-03-12T03:03:35.085Z,3.41
2023-03-12T03:04:35.711Z,3.4
2023-03-12T03:05:35.646Z,3.34
2023-03-12T03:06:36.912Z,3.46
2023-03-12T03:07:36.685Z,3.41
2023-03-12T03:08:37.322Z,3.52
2023-03-12T03:09:38.261Z,3.48
2023-03-12T03:10:38.194Z,3.49
2023-03-12T03:11:39.120Z,3.48
2023-03-12T03:12:39.324Z,3.4
2023-03-12T03:13:39.817Z,3.4
2023-03-12T03:14:39.745Z,3.49
2023-03-12T03:15:39.992Z,3.43
2023-03-12T03:16:41.061Z,3.31
2023-03-12T03:17:41.661Z,3.36
2023-03-12T03:18:41.312Z,3.36
2023-03-12T03:19:42.255Z,3.41
2023-03-12T03:20:42.737Z,3.41
2023-03-12T03:21:43.036Z,3.49
2023-03-12T03:22:43.043Z,3.41
2023-03-12T03:23:43.678Z,3.33
2023-03-12T03:24:43.930Z,3.34
2023-03-12T03:25:45.134Z,3.4
2023-03-12T03:26:45.766Z,3.49
2023-03-12T03:27:46.777Z,3.48
2023-03-12T03:28:46.699Z,3.5
2023-03-12T03:29:47.658Z,3.48
2023-03-12T03:30:48.506Z,3.4
2023-03-12T03:31:48.874Z,3.43
2023-03-12T03:32:49.320Z,3.34
2023-03-12T03:33:49.060Z,3.43
2023-03-12T03:34:49.284Z,3.4
2023-03-12T03:35:50.504Z,3.33
2023-03-12T03:36:51.011Z,3.45
2023-03-12T03:37:51.424Z,3.5
2023-03-12T03:38:52.625Z,3.55
2023-03-12T03:39:52.549Z,3.45
2023-03-12T03:40:53.482Z,3.43
2023-03-12T03:41:54.440Z,3.5
2023-03-12T03:42:55.210Z,3.45
2023-03-12T03:43:56.408Z,3.46
2023-03-12T03:44:56.609Z,3.5
2023-03-12T03:45:57.643Z,3.4
2023-03-12T03:46:58.058Z,3.45
2023-03-12T03:47:58.381Z,3.46
2023-03-12T03:48:58.307Z,3.41
2023-03-12T03:49:58.959Z,3.41
2023-03-12T03:51:00.159Z,3.45
2023-03-12T03:52:00.531Z,3.49
2023-03-12T03:53:00.495Z,3.49
2023-03-12T03:54:01.441Z,3.4
2023-03-12T03:55:02.648Z,3.49
2023-03-12T03:56:02.860Z,3.45
2023-03-12T03:57:02.769Z,3.34
2023-03-12T03:58:03.541Z,3.46
2023-03-12T03:59:04.753Z,3.26
2023-03-12T04:00:07.416Z,3.34
2023-03-12T04:01:05.943Z,3.29
2023-03-12T04:02:06.156Z,3.34
2023-03-12T04:03:06.195Z,3.27
2023-03-12T04:04:06.910Z,3.34
2023-03-12T04:05:06.856Z,3.34
2023-03-12T04:06:07.842Z,3.3
2023-03-12T04:07:08.422Z,3.33
2023-03-12T04:08:08.460Z,3.27
2023-03-12T04:09:09.658Z,3.26
2023-03-12T04:10:09.880Z,3.26
2023-03-12T04:11:10.108Z,3.21
2023-03-12T04:12:10.653Z,3.19
2023-03-12T04:13:10.565Z,3.09
2023-03-12T04:14:11.771Z,3.13
2023-03-12T04:15:12.416Z,3.03
2023-03-12T04:16:13.117Z,3.13
2023-03-12T04:17:13.583Z,2.94
2023-03-12T04:18:14.050Z,2.94
2023-03-12T04:19:14.810Z,3.01
2023-03-12T04:20:15.026Z,2.88
2023-03-12T04:21:15.341Z,2.87
2023-03-12T04:22:15.969Z,2.83
2023-03-12T04:23:16.216Z,2.87
2023-03-12T04:24:17.423Z,2.9
2023-03-12T04:25:17.649Z,2.85
2023-03-12T04:26:17.887Z,2.87
2023-03-12T04:27:18.464Z,2.85
2023-03-12T04:28:19.176Z,2.88
2023-03-12T04:29:19.397Z,2.79
2023-03-12T04:30:19.314Z,2.73
2023-03-12T04:31:20.662Z,2.76
2023-03-12T04:32:21.064Z,2.85
2023-03-12T04:33:21.452Z,2.76
2023-03-12T04:34:21.413Z,2.76
2023-03-12T04:35:22.044Z,2.85
2023-03-12T04:36:22.696Z,2.75
2023-03-12T04:37:23.255Z,2.8
2023-03-12T04:38:23.924Z,2.83
2023-03-12T04:39:24.123Z,2.83
2023-03-12T04:40:24.654Z,2.83
2023-03-12T04:41:24.629Z,2.8
2023-03-12T04:42:25.148Z,2.9
2023-03-12T04:43:25.339Z,2.87
2023-03-12T04:44:25.684Z,2.87
2023-03-12T04:45:26.166Z,2.91
2023-03-12T04:46:27.195Z,2.85
2023-03-12T04:47:27.794Z,2.76
2023-03-12T04:48:28.226Z,2.88
2023-03-12T04:49:28.711Z,2.83
2023-03-12T04:50:29.400Z,2.76
2023-03-12T04:51:30.609Z,2.77
2023-03-12T04:52:31.197Z,2.76
2023-03-12T04:53:32.046Z,2.73
2023-03-12T04:54:32.697Z,2.77
2023-03-12T04:55:32.902Z,2.7
2023-03-12T04:56:33.851Z,2.68
2023-03-12T04:57:34.059Z,2.7
2023-03-12T04:58:34.102Z,2.76
2023-03-12T04:59:35.313Z,2.76
2023-03-12T05:00:35.247Z,2.72
2023-03-12T05:01:36.473Z,2.68
2023-03-12T05:02:36.491Z,2.69
2023-03-12T05:03:36.845Z,2.68
2023-03-12T05:04:39.583Z,2.64
2023-03-12T05:05:37.525Z,2.64
2023-03-12T05:06:38.433Z,2.68
2023-03-12T05:07:39.734Z,2.52
2023-03-12T05:08:39.791Z,2.55
2023-03-12T05:09:40.723Z,2.61
2023-03-12T05:10:40.937Z,2.58
2023-03-12T05:11:44.560Z,2.65
2023-03-12T05:12:42.479Z,2.72
2023-03-12T05:13:42.984Z,2.64
2023-03-12T05:14:42.919Z,2.64
2023-03-12T05:15:43.148Z,2.69
2023-03-12T05:16:44.026Z,2.65
2023-03-12T05:17:43.712Z,2.59
2023-03-12T05:18:44.667Z,2.61
2023-03-12T05:19:44.868Z,2.62
2023-03-12T05:20:44.783Z,2.65
2023-03-12T05:21:45.690Z,2.69
2023-03-12T05:22:46.676Z,2.72
2023-03-12T05:23:46.921Z,2.72
2023-03-12T05:24:47.848Z,2.68
2023-03-12T05:25:48.058Z,2.72
2023-03-12T05:26:48.564Z,2.69
2023-03-12T05:27:48.497Z,2.72
2023-03-12T05:28:49.507Z,2.75
2023-03-12T05:29:49.817Z,2.69
2023-03-12T05:30:50.318Z,2.76
2023-03-12T05:31:50.554Z,2.72
2023-03-12T05:32:51.000Z,2.7
2023-03-12T05:33:53.268Z,2.75
2023-03-12T05:34:51.464Z,2.73
2023-03-12T05:35:52.211Z,2.85
2023-03-12T05:36:53.024Z,2.85
2023-03-12T05:37:53.314Z,2.87
2023-03-12T05:38:53.686Z,2.87
2023-03-12T05:39:54.616Z,2.76
2023-03-12T05:40:55.556Z,2.85
2023-03-12T05:41:55.763Z,2.82
2023-03-12T05:42:56.381Z,2.98
2023-03-12T05:43:57.033Z,2.94
2023-03-12T05:44:56.968Z,2.83
2023-03-12T05:45:58.478Z,2.91
2023-03-12T05:46:59.709Z,2.88
2023-03-12T05:47:59.635Z,2.83
2023-03-12T05:49:00.650Z,2.85
2023-03-12T05:50:00.596Z,2.95
2023-03-12T05:51:00.828Z,2.83
2023-03-12T05:52:02.029Z,2.75
2023-03-12T05:53:02.314Z,2.8
2023-03-12T05:54:02.854Z,2.87
2023-03-12T05:55:03.494Z,2.87
2023-03-12T05:56:04.424Z,2.91
2023-03-12T05:57:05.342Z,2.91
2023-03-12T05:58:05.290Z,2.95
2023-03-12T05:59:06.343Z,3
2023-03-12T06:00:06.558Z,2.98
2023-03-12T06:01:06.486Z,3.11
2023-03-12T06:02:07.568Z,2.93
2023-03-12T06:03:08.168Z,3.06
2023-03-12T06:04:08.416Z,3
2023-03-12T06:05:08.912Z,3.08
2023-03-12T06:06:09.132Z,3.09
2023-03-12T06:07:09.636Z,3.12
2023-03-12T06:08:10.310Z,3.11
2023-03-12T06:09:10.070Z,3.13
2023-03-12T06:10:10.410Z,3.08
2023-03-12T06:11:11.053Z,3.11
2023-03-12T06:12:11.543Z,3.11
2023-03-12T06:13:11.532Z,3.08
2023-03-12T06:14:11.872Z,3.15
2023-03-12T06:15:13.140Z,3.11
2023-03-12T06:16:13.216Z,3.12
2023-03-12T06:17:14.055Z,3.22
2023-03-12T06:18:14.971Z,3.19
2023-03-12T06:19:15.294Z,3.34
2023-03-12T06:20:16.205Z,3.37
2023-03-12T06:21:16.854Z,3.31
2023-03-12T06:22:18.067Z,3.29
2023-03-12T06:23:21.980Z,3.34
2023-03-12T06:24:19.230Z,3.33
2023-03-12T06:25:19.722Z,3.43
2023-03-12T06:26:20.234Z,3.37
2023-03-12T06:27:21.144Z,3.27
2023-03-12T06:28:21.392Z,3.27
2023-03-12T06:29:22.411Z,3.41
2023-03-12T06:30:22.623Z,3.45
2023-03-12T06:31:23.044Z,3.33
2023-03-12T06:32:23.951Z,3.26
2023-03-12T06:33:24.228Z,3.26
2023-03-12T06:34:24.482Z,3.26
2023-03-12T06:35:24.916Z,3.27
2023-03-12T06:36:25.267Z,3.26
2023-03-12T06:37:26.204Z,3.31
2023-03-12T06:38:26.482Z,3.36
2023-03-12T06:39:26.923Z,3.36
2023-03-12T06:40:28.124Z,3.22
2023-03-12T06:41:28.509Z,3.18
2023-03-12T06:42:29.807Z,3.24
2023-03-12T06:43:30.028Z,3.18
2023-03-12T06:44:29.668Z,3.15
2023-03-12T06:45:30.867Z,3.29
2023-03-12T06:46:31.681Z,3.3
2023-03-12T06:47:31.267Z,3.24
2023-03-12T06:48:31.465Z,3.3
2023-03-12T06:49:32.119Z,3.29
2023-03-12T06:50:32.064Z,3.4
2023-03-12T06:51:32.993Z,3.4
2023-03-12T06:52:33.194Z,3.33
2023-03-12T06:53:34.014Z,3.31
2023-03-12T06:54:34.447Z,3.36
2023-03-12T06:55:34.641Z,3.37
2023-03-12T06:56:35.148Z,3.33
2023-03-12T06:57:36.060Z,3.36
2023-03-12T06:58:36.439Z,3.4
2023-03-12T06:59:37.243Z,3.3
2023-03-12T07:00:37.686Z,3.31
2023-03-12T07:01:38.819Z,3.49
2023-03-12T07:02:38.866Z,3.34
2023-03-12T07:03:39.511Z,3.49
2023-03-12T07:04:40.168Z,3.4
2023-03-12T07:05:41.491Z,3.46
2023-03-12T07:06:41.686Z,3.46
2023-03-12T07:07:42.177Z,3.52
2023-03-12T07:08:42.502Z,3.43
2023-03-12T07:09:42.360Z,3.58
2023-03-12T07:10:43.622Z,3.56
2023-03-12T07:11:44.110Z,3.5
2023-03-12T07:12:44.052Z,3.64
2023-03-12T07:13:44.291Z,3.61
2023-03-12T07:14:45.491Z,3.61
2023-03-12T07:15:45.812Z,3.61
2023-03-12T07:16:45.601Z,3.64
2023-03-12T07:17:46.582Z,3.61
2023-03-12T07:18:47.576Z,3.67
2023-03-12T07:19:50.372Z,3.61
2023-03-12T07:20:48.028Z,3.73
2023-03-12T07:21:49.257Z,3.73
2023-03-12T07:22:50.473Z,3.7
2023-03-12T07:23:51.481Z,3.76
2023-03-12T07:24:52.234Z,3.7
2023-03-12T07:25:52.036Z,3.71
2023-03-12T07:26:52.555Z,3.74
2023-03-12T07:27:52.479Z,3.71
2023-03-12T07:28:53.169Z,3.71
2023-03-12T07:29:53.893Z,3.71
2023-03-12T07:30:54.122Z,3.64
2023-03-12T07:31:54.734Z,3.67
2023-03-12T07:32:54.995Z,3.7
2023-03-12T07:33:55.166Z,3.76
2023-03-12T07:34:55.967Z,3.73
2023-03-12T07:35:58.217Z,3.74
2023-03-12T07:36:56.701Z,3.71
2023-03-12T07:37:56.789Z,3.73
2023-03-12T07:38:57.384Z,3.68
2023-03-12T07:39:57.929Z,3.81
2023-03-12T07:40:58.471Z,3.71
2023-03-12T07:41:58.348Z,3.91
2023-03-12T07:42:59.690Z,3.88
2023-03-12T07:44:00.191Z,3.92
2023-03-12T07:45:01.051Z,3.84
2023-03-12T07:46:01.390Z,3.88
2023-03-12T07:47:24.310Z,3.92
2023-03-12T07:48:02.099Z,3.99
2023-03-12T07:49:03.149Z,3.91
2023-03-12T07:50:03.727Z,4.03
2023-03-12T07:51:03.795Z,3.92
2023-03-12T07:52:04.500Z,3.91
2023-03-12T07:53:05.201Z,3.89
2023-03-12T07:54:06.211Z,3.92
2023-03-12T07:55:06.760Z,4.09
2023-03-12T07:56:07.546Z,4.02
2023-03-12T07:57:07.634Z,4.04
2023-03-12T07:58:08.513Z,4.07
2023-03-12T07:59:09.946Z,4.07
2023-03-12T08:00:10.430Z,4.09
2023-03-12T08:01:10.484Z,4.2
2023-03-12T08:02:11.009Z,4.14
2023-03-12T08:03:12.700Z,4.21
2023-03-12T08:04:12.605Z,4.22
2023-03-12T08:05:13.663Z,4.34
2023-03-12T08:06:13.877Z,4.31
2023-03-12T08:07:15.552Z,4.3
2023-03-12T08:08:14.910Z,4.28
2023-03-12T08:09:15.992Z,4.38
2023-03-12T08:10:16.609Z,4.32
2023-03-12T08:11:16.760Z,4.43
2023-03-12T08:12:16.892Z,4.32
2023-03-12T08:13:18.550Z,4.5
2023-03-12T08:14:19.516Z,4.48
2023-03-12T08:15:19.232Z,4.43
2023-03-12T08:16:20.296Z,4.48
2023-03-12T08:17:20.045Z,4.5
2023-03-12T08:18:21.566Z,4.56
2023-03-12T08:19:21.785Z,4.56
2023-03-12T08:20:22.410Z,4.61
2023-03-12T08:21:22.410Z,4.68
2023-03-12T08:22:23.338Z,4.74
2023-03-12T08:23:23.844Z,4.63
2023-03-12T08:24:24.835Z,4.61
2023-03-12T08:25:25.565Z,4.63
2023-03-12T08:26:25.462Z,4.52
2023-03-12T08:27:25.673Z,4.52
2023-03-12T08:28:26.170Z,4.46
2023-03-12T08:29:26.447Z,4.43
2023-03-12T08:30:30.448Z,4.4
2023-03-12T08:31:27.859Z,4.31
2023-03-12T08:32:28.420Z,4.27
2023-03-12T08:33:28.495Z,4.3
2023-03-12T08:34:28.415Z,4.3
2023-03-12T08:35:29.739Z,4.16
2023-03-12T08:36:30.011Z,4.18
2023-03-12T08:37:30.929Z,4.18
2023-03-12T08:38:31.592Z,4.22
2023-03-12T08:39:32.964Z,4.27
2023-03-12T08:40:33.313Z,4.28
2023-03-12T08:41:34.527Z,4.42
2023-03-12T08:42:34.450Z,4.36
2023-03-12T08:43:35.269Z,4.34
2023-03-12T08:44:35.764Z,4.43
2023-03-12T08:45:36.181Z,4.36
2023-03-12T08:46:37.063Z,4.34
2023-03-12T08:47:37.571Z,4.31
2023-03-12T08:48:38.092Z,4.4
2023-03-12T08:49:38.321Z,4.42
2023-03-12T08:50:38.656Z,4.3
2023-03-12T08:51:38.863Z,4.32
2023-03-12T08:52:39.795Z,4.42
2023-03-12T08:53:41.008Z,4.53
2023-03-12T08:54:41.348Z,4.53
2023-03-12T08:55:41.981Z,4.57
2023-03-12T08:56:41.460Z,4.6
2023-03-12T08:57:42.321Z,4.57
2023-03-12T08:58:42.983Z,4.57
2023-03-12T08:59:43.503Z,4.53
2023-03-12T09:00:43.900Z,4.67
2023-03-12T09:01:44.620Z,4.68
2023-03-12T09:02:44.182Z,4.71
2023-03-12T09:03:45.174Z,4.68
2023-03-12T09:04:45.637Z,4.82
2023-03-12T09:05:46.652Z,4.87
2023-03-12T09:06:46.875Z,4.89
2023-03-12T09:07:47.103Z,4.87
2023-03-12T09:08:47.053Z,4.87
2023-03-12T09:09:48.448Z,4.84
2023-03-12T09:10:48.927Z,4.98
2023-03-12T09:11:49.659Z,5.02
2023-03-12T09:12:50.950Z,5
2023-03-12T09:15:03.699Z,4.97
2023-03-12T09:15:20.851Z,5.07
2023-03-12T09:16:21.901Z,5.01
2023-03-12T09:17:22.286Z,5.04
2023-03-12T09:18:23.514Z,5.01
2023-03-12T09:19:23.743Z,5.08
2023-03-12T09:20:24.980Z,4.98
2023-03-12T09:21:25.119Z,5.05
2023-03-12T09:22:26.326Z,5.13
2023-03-12T09:23:26.880Z,5.15
2023-03-12T09:24:27.412Z,5.2
2023-03-12T09:25:28.411Z,5.25
2023-03-12T09:26:28.656Z,5.26
2023-03-12T09:27:29.573Z,5.31
2023-03-12T09:28:29.769Z,5.38
2023-03-12T09:29:29.998Z,5.36
2023-03-12T09:30:30.036Z,5.31
2023-03-12T09:31:30.477Z,5.29
2023-03-12T09:32:32.014Z,5.4
2023-03-12T09:33:32.399Z,5.37
2023-03-12T09:34:32.908Z,5.37
2023-03-12T09:35:33.573Z,5.44
2023-03-12T09:36:34.194Z,5.55
2023-03-12T09:37:34.685Z,5.52
2023-03-12T09:38:35.344Z,5.61
2023-03-12T09:39:36.269Z,5.58
2023-03-12T09:40:37.332Z,5.64
2023-03-12T09:41:37.827Z,5.64
2023-03-12T09:42:39.060Z,5.65
2023-03-12T09:43:39.879Z,5.81
2023-03-12T09:44:40.545Z,5.81
2023-03-12T09:45:41.198Z,5.88
2023-03-12T09:46:42.806Z,5.88
2023-03-12T09:47:43.733Z,5.9
2023-03-12T09:48:47.868Z,5.91
2023-03-12T09:49:44.243Z,5.9
2023-03-12T09:50:45.180Z,6.06
2023-03-12T09:51:45.675Z,6.02
2023-03-12T09:52:46.885Z,5.97
2023-03-12T09:53:47.126Z,6.06
2023-03-12T09:54:47.933Z,6.07
2023-03-12T09:55:48.034Z,6.02
2023-03-12T09:56:48.591Z,6.02
2023-03-12T09:57:48.812Z,6.15
2023-03-12T09:58:49.043Z,6.07
2023-03-12T09:59:48.848Z,6.06
2023-03-12T10:00:52.179Z,6.06
2023-03-12T10:06:54.385Z,6.16
2023-03-12T10:07:54.110Z,6.2
2023-03-12T10:08:54.639Z,6.29
2023-03-12T10:09:55.866Z,6.39
2023-03-12T10:10:56.566Z,6.38
2023-03-12T10:11:56.916Z,6.36
2023-03-12T10:12:57.596Z,6.39
2023-03-12T10:13:58.806Z,6.39
2023-03-12T10:14:59.019Z,6.43
2023-03-12T10:15:59.925Z,6.38
2023-03-12T10:16:59.601Z,6.35
2023-03-12T10:18:00.742Z,6.34
2023-03-12T10:19:00.990Z,6.31
2023-03-12T10:20:01.326Z,6.34
2023-03-12T10:21:01.252Z,6.44
2023-03-12T10:22:02.706Z,6.46
2023-03-12T10:23:03.362Z,6.56
2023-03-12T10:24:03.880Z,6.6
2023-03-12T10:25:04.077Z,6.74
2023-03-12T10:26:04.357Z,6.72
2023-03-12T10:27:04.630Z,6.77
2023-03-12T10:28:05.916Z,7.19
2023-03-12T10:29:05.975Z,7.64
2023-03-12T10:30:06.932Z,7.87
2023-03-12T10:31:07.813Z,7.95
2023-03-12T10:32:08.127Z,8.08
2023-03-12T10:33:08.771Z,8.13
2023-03-12T10:34:09.281Z,8.16
2023-03-12T10:35:09.926Z,8.16
2023-03-12T10:36:10.520Z,8.16
2023-03-12T10:37:10.489Z,8.13
2023-03-12T10:38:11.813Z,8.03
2023-03-12T10:39:12.457Z,8.08
2023-03-12T10:40:13.085Z,8.13
2023-03-12T10:41:14.183Z,8.09
2023-03-12T10:42:14.611Z,8.05
2023-03-12T10:43:15.264Z,7.96
2023-03-12T10:44:15.919Z,7.84
2023-03-12T10:45:16.446Z,7.9
2023-03-12T10:46:17.247Z,7.9
2023-03-12T10:47:17.657Z,7.87
2023-03-12T10:48:17.909Z,7.91
2023-03-12T10:49:18.555Z,8.02
2023-03-12T10:50:19.792Z,8.14
2023-03-12T10:51:19.718Z,8.2
2023-03-12T10:52:20.431Z,8.2
2023-03-12T10:53:21.642Z,8.31
2023-03-12T10:54:22.802Z,8.35
2023-03-12T10:55:22.743Z,8.52
2023-03-12T10:56:23.720Z,8.52
2023-03-12T10:57:23.978Z,8.52
2023-03-12T10:58:24.493Z,8.5
2023-03-12T10:59:24.425Z,8.59
2023-03-12T11:00:25.064Z,8.79
2023-03-12T11:01:26.248Z,8.74
2023-03-12T11:02:26.976Z,8.89
2023-03-12T11:03:27.990Z,8.86
2023-03-12T11:04:30.720Z,8.93
2023-03-12T11:05:28.961Z,8.99
2023-03-12T11:06:30.231Z,9.09
2023-03-12T11:07:30.453Z,9.02
2023-03-12T11:08:31.371Z,9.03
2023-03-12T11:09:32.297Z,9.12
2023-03-12T11:10:32.721Z,9.13
2023-03-12T11:11:33.367Z,9.09
2023-03-12T11:12:33.546Z,9.13
2023-03-12T11:13:33.781Z,9.03
2023-03-12T11:14:34.696Z,9.05
2023-03-12T11:15:35.192Z,9.03
2023-03-12T11:16:38.149Z,9
2023-03-12T11:17:35.369Z,8.9
2023-03-12T11:18:36.329Z,8.81
2023-03-12T11:19:36.306Z,8.78
2023-03-12T11:20:37.522Z,8.77
2023-03-12T11:21:38.454Z,8.77
2023-03-12T11:22:39.491Z,8.81
2023-03-12T11:23:39.947Z,8.77
2023-03-12T11:24:39.870Z,8.79
2023-03-12T11:25:40.789Z,9.02
2023-03-12T11:26:42.070Z,9.03
2023-03-12T11:27:42.640Z,8.95
2023-03-12T11:28:43.002Z,9.16
2023-03-12T11:29:43.860Z,9.16
2023-03-12T11:30:44.218Z,9.33
2023-03-12T11:31:47.735Z,9.36
2023-03-12T11:32:45.612Z,9.44
2023-03-12T11:33:45.765Z,9.55
2023-03-12T11:34:46.694Z,9.55
2023-03-12T11:35:47.692Z,9.69
2023-03-12T11:36:47.785Z,9.74
2023-03-12T11:37:48.773Z,9.73
2023-03-12T11:38:49.712Z,9.87
2023-03-12T11:39:50.676Z,9.85
2023-03-12T11:40:51.605Z,9.85
2023-03-12T11:41:52.335Z,9.91
2023-03-12T11:42:52.438Z,9.95
2023-03-12T11:43:53.958Z,10.07
2023-03-12T11:44:54.176Z,10.1
2023-03-12T11:45:55.160Z,10.1
2023-03-12T11:46:56.144Z,10.03
2023-03-12T11:47:56.662Z,10.1
2023-03-12T11:48:56.654Z,10.09
2023-03-12T11:49:57.145Z,10.12
2023-03-12T11:50:58.362Z,10.12
2023-03-12T11:51:59.610Z,10.25
2023-03-12T11:52:59.918Z,10.24
2023-03-12T11:54:00.575Z,10.25
2023-03-12T11:55:01.285Z,10.15
2023-03-12T11:56:01.642Z,10.27
2023-03-12T11:57:02.944Z,10.28
2023-03-12T11:58:03.522Z,10.23
2023-03-12T11:59:03.159Z,10.12
2023-03-12T12:00:03.830Z,10.15
2023-03-12T12:01:04.474Z,10.1
2023-03-12T12:02:05.560Z,10.06
2023-03-12T12:03:06.132Z,10.06
2023-03-12T12:04:06.523Z,9.99
2023-03-12T12:05:06.202Z,9.94
2023-03-12T12:06:07.156Z,9.95
2023-03-12T12:07:08.087Z,9.91
2023-03-12T12:08:09.372Z,9.94
2023-03-12T12:09:09.599Z,9.95
2023-03-12T12:10:09.560Z,9.94
2023-03-12T12:11:10.849Z,9.95
2023-03-12T12:12:11.797Z,9.95
2023-03-12T12:13:11.174Z,9.99
2023-03-12T12:14:11.827Z,9.95
2023-03-12T12:15:12.318Z,9.92
2023-03-12T12:16:12.653Z,10.02
2023-03-12T12:17:12.684Z,9.97
2023-03-12T12:18:13.319Z,9.95
2023-03-12T12:19:14.012Z,9.92
2023-03-12T12:20:14.312Z,9.95
2023-03-12T12:21:15.505Z,9.85
2023-03-12T12:22:16.289Z,9.84
2023-03-12T12:23:16.618Z,9.85
2023-03-12T12:24:18.850Z,9.94
2023-03-12T12:25:17.375Z,9.92
2023-03-12T12:26:17.345Z,10.05
2023-03-12T12:27:18.584Z,10
2023-03-12T12:28:19.127Z,10.09
2023-03-12T12:29:18.921Z,10.15
2023-03-12T12:30:20.140Z,10.12
2023-03-12T12:31:21.428Z,10.15
2023-03-12T12:32:21.350Z,10.1
2023-03-12T12:33:22.209Z,10.06
2023-03-12T12:34:23.139Z,10.03
2023-03-12T12:35:23.090Z,10.03
2023-03-12T12:36:24.363Z,10.02
2023-03-12T12:37:24.328Z,10.05
2023-03-12T12:38:25.546Z,10.09
2023-03-12T12:39:26.202Z,10.09
2023-03-12T12:40:27.281Z,10.15
2023-03-12T12:41:27.214Z,10.09
2023-03-12T12:42:27.814Z,10.2
2023-03-12T12:43:28.561Z,10.2
2023-03-12T12:44:28.759Z,10.24
2023-03-12T12:45:31.577Z,10.23
2023-03-12T12:46:30.337Z,10.27
2023-03-12T12:47:30.880Z,10.24
2023-03-12T12:48:31.092Z,10.23
2023-03-12T12:49:32.614Z,10.25
2023-03-12T12:50:32.546Z,10.3
2023-03-12T12:51:32.478Z,10.18
2023-03-12T12:52:33.129Z,10.24
2023-03-12T12:53:33.880Z,10.21
2023-03-12T12:54:33.809Z,10.17
2023-03-12T12:55:35.032Z,10.09
2023-03-12T12:56:35.970Z,10.1
2023-03-12T12:57:36.571Z,10.1
2023-03-12T12:58:36.850Z,10.13
2023-03-12T12:59:37.835Z,10.12
2023-03-12T13:00:38.065Z,10.1
2023-03-12T13:01:39.343Z,10.09
2023-03-12T13:02:39.794Z,10.03
2023-03-12T13:03:40.993Z,10.1
2023-03-12T13:04:41.207Z,10.05
2023-03-12T13:05:41.862Z,10.1
2023-03-12T13:06:45.543Z,10.1
2023-03-12T13:07:42.473Z,10.13
2023-03-12T13:08:42.974Z,10.13
2023-03-12T13:09:42.984Z,10.06
2023-03-12T13:11:16.071Z,10.07
2023-03-12T13:11:43.831Z,10.1
2023-03-12T13:12:45.101Z,10.15
2023-03-12T13:13:45.381Z,10.13
2023-03-12T13:14:45.913Z,10.24
2023-03-12T13:15:46.240Z,10.25
2023-03-12T13:16:47.232Z,10.28
2023-03-12T13:17:48.470Z,10.3
2023-03-12T13:18:48.718Z,10.33
2023-03-12T13:20:02.251Z,10.34
2023-03-12T13:20:49.572Z,10.41
2023-03-12T13:21:50.520Z,10.39
2023-03-12T13:22:51.135Z,10.41
2023-03-12T13:23:51.122Z,10.34
2023-03-12T13:24:52.057Z,10.45
2023-03-12T13:25:53.292Z,10.48
2023-03-12T13:26:53.519Z,10.58
2023-03-12T13:27:54.834Z,10.42
2023-03-12T13:29:12.981Z,10.42
2023-03-12T13:29:55.705Z,10.39
2023-03-12T13:30:57.103Z,10.38
2023-03-12T13:31:57.380Z,10.39
2023-03-12T13:32:58.507Z,10.31